createdAt,value
2017-08-26T00:04:45.931Z,82.30
2017-08-26T00:07:14.171Z,81.70
2017-08-26T00:09:40.474Z,82.20
2017-08-26T00:12:06.684Z,83.30
2017-08-26T00:14:32.865Z,83.30
2017-08-26T00:16:59.008Z,84.20
2017-08-26T00:19:25.144Z,84.30
2017-08-26T00:21:51.430Z,84.20
2017-08-26T00:24:18.427Z,83.50
2017-08-26T00:26:44.670Z,84.10
2017-08-26T00:29:10.821Z,84.10
2017-08-26T00:31:37.101Z,84.30
2017-08-26T00:34:03.310Z,84.40
2017-08-26T00:36:29.519Z,84.80
2017-08-26T00:38:55.676Z,85.10
2017-08-26T00:41:21.838Z,84.90
2017-08-26T00:43:48.120Z,84.70
2017-08-26T00:46:14.268Z,85.00
2017-08-26T00:48:40.524Z,85.40
2017-08-26T00:51:06.756Z,86.90
2017-08-26T00:53:33.925Z,87.80
2017-08-26T00:56:00.058Z,88.10
2017-08-26T00:58:26.256Z,89.10
2017-08-26T01:00:52.554Z,90.10
2017-08-26T01:03:18.735Z,90.50
2017-08-26T01:05:44.891Z,90.40
2017-08-26T01:08:11.051Z,90.80
2017-08-26T01:10:37.262Z,90.90
2017-08-26T01:13:03.630Z,90.70
2017-08-26T01:15:29.817Z,91.30
2017-08-26T01:17:55.953Z,90.90
2017-08-26T01:20:22.200Z,91.80
2017-08-26T01:22:48.414Z,91.30
2017-08-26T01:25:14.632Z,92.20
2017-08-26T01:27:40.807Z,92.10
2017-08-26T01:30:06.990Z,92.30
2017-08-26T01:32:33.112Z,92.40
2017-08-26T01:34:59.265Z,92.60
2017-08-26T01:37:25.473Z,92.40
2017-08-26T01:39:51.606Z,91.80
2017-08-26T01:42:17.811Z,91.10
2017-08-26T01:44:43.938Z,91.40
2017-08-26T01:47:10.139Z,91.80
2017-08-26T01:49:36.360Z,90.70
2017-08-26T01:52:02.590Z,90.60
2017-08-26T01:54:28.776Z,91.10
2017-08-26T01:56:54.953Z,89.90
2017-08-26T01:59:21.078Z,89.50
2017-08-26T02:01:47.325Z,88.90
2017-08-26T02:04:19.601Z,88.30
2017-08-26T02:06:51.872Z,89.10
2017-08-26T02:09:24.247Z,89.40
2017-08-26T02:11:56.643Z,89.70
2017-08-26T02:14:29.177Z,89.70
2017-08-26T02:17:01.556Z,89.70
2017-08-26T02:19:33.937Z,89.90
2017-08-26T02:22:06.147Z,90.40
2017-08-26T02:24:38.559Z,90.80
2017-08-26T02:27:10.876Z,91.10
2017-08-26T02:29:43.299Z,92.10
2017-08-26T02:32:15.677Z,92.80
2017-08-26T02:34:48.069Z,93.40
2017-08-26T02:37:20.296Z,93.30
2017-08-26T02:39:52.632Z,94.50
2017-08-26T02:42:24.872Z,95.00
2017-08-26T02:44:57.343Z,95.70
2017-08-26T02:47:29.600Z,96.30
2017-08-26T02:50:01.768Z,96.90
2017-08-26T02:52:34.117Z,97.40
2017-08-26T02:55:06.282Z,97.30
2017-08-26T02:57:38.692Z,98.30
2017-08-26T03:00:11.017Z,98.60
2017-08-26T03:02:43.270Z,98.30
2017-08-26T03:05:15.780Z,98.30
2017-08-26T03:07:48.017Z,99.00
2017-08-26T03:10:20.381Z,99.60
2017-08-26T03:12:52.643Z,99.90
2017-08-26T03:15:24.963Z,99.90
2017-08-26T03:17:57.222Z,99.90
2017-08-26T03:20:29.681Z,99.90
2017-08-26T03:23:02.277Z,99.90
2017-08-26T03:25:34.628Z,99.90
2017-08-26T03:28:06.925Z,99.90
2017-08-26T03:30:39.277Z,99.90
2017-08-26T03:33:11.614Z,99.90
2017-08-26T03:35:43.871Z,99.90
2017-08-26T03:38:16.433Z,99.90
2017-08-26T03:40:48.736Z,99.90
2017-08-26T03:43:21.057Z,99.90
2017-08-26T03:45:53.182Z,99.90
2017-08-26T03:48:25.519Z,99.90
2017-08-26T03:50:58.009Z,99.90
2017-08-26T03:53:30.580Z,99.90
2017-08-26T03:56:02.947Z,99.90
2017-08-26T03:58:35.474Z,99.90
2017-08-26T04:01:07.896Z,99.90
2017-08-26T04:03:40.253Z,99.90
2017-08-26T04:06:12.494Z,99.90
2017-08-26T04:08:44.952Z,99.90
2017-08-26T04:11:17.225Z,99.90
2017-08-26T04:13:49.766Z,99.90
2017-08-26T04:16:22.115Z,99.90
2017-08-26T04:18:54.506Z,99.80
2017-08-26T04:21:26.877Z,99.80
2017-08-26T04:23:59.315Z,99.90
2017-08-26T04:26:31.752Z,98.70
2017-08-26T04:29:03.984Z,97.80
2017-08-26T04:31:36.401Z,97.30
2017-08-26T04:34:08.672Z,96.70
2017-08-26T04:36:41.078Z,96.30
2017-08-26T04:39:13.794Z,95.90
2017-08-26T04:41:46.123Z,96.30
2017-08-26T04:44:18.349Z,96.60
2017-08-26T04:46:50.678Z,95.50
2017-08-26T04:49:22.889Z,94.70
2017-08-26T04:51:55.241Z,94.90
2017-08-26T04:54:27.829Z,95.70
2017-08-26T04:57:00.064Z,95.60
2017-08-26T04:59:32.266Z,94.80
2017-08-26T05:02:04.663Z,95.30
2017-08-26T05:04:37.244Z,93.10
2017-08-26T05:07:09.538Z,93.80
2017-08-26T05:09:42.196Z,93.20
2017-08-26T05:12:14.523Z,93.30
2017-08-26T05:14:47.181Z,92.40
2017-08-26T05:17:19.376Z,92.20
2017-08-26T05:19:51.775Z,91.80
2017-08-26T05:22:24.138Z,90.10
2017-08-26T05:24:56.581Z,89.20
2017-08-26T05:27:28.908Z,87.40
2017-08-26T05:30:01.355Z,86.20
2017-08-26T05:32:33.785Z,85.50
2017-08-26T05:35:06.486Z,85.20
2017-08-26T05:37:38.716Z,85.60
2017-08-26T05:40:11.234Z,84.50
2017-08-26T05:42:43.526Z,83.90
2017-08-26T05:45:15.988Z,83.10
2017-08-26T05:47:49.058Z,82.00
2017-08-26T05:50:21.955Z,83.70
2017-08-26T05:52:54.193Z,82.60
2017-08-26T05:55:26.804Z,80.00
2017-08-26T05:57:58.954Z,80.00
2017-08-26T06:00:31.540Z,77.80
2017-08-26T06:03:03.738Z,77.30
2017-08-26T06:05:36.190Z,75.40
2017-08-26T06:08:08.543Z,75.20
2017-08-26T06:10:40.978Z,74.40
2017-08-26T06:13:13.304Z,74.10
2017-08-26T06:15:46.111Z,71.60
2017-08-26T06:18:18.269Z,70.20
2017-08-26T06:20:50.863Z,69.30
2017-08-26T06:23:23.134Z,67.10
2017-08-26T06:25:55.788Z,64.70
2017-08-26T06:28:28.163Z,61.70
2017-08-26T06:31:00.638Z,61.20
2017-08-26T06:33:32.892Z,62.10
2017-08-26T06:36:05.690Z,63.30
2017-08-26T06:38:37.917Z,63.10
2017-08-26T06:41:10.633Z,62.20
2017-08-26T06:43:42.796Z,62.10
2017-08-26T06:46:15.589Z,61.50
2017-08-26T06:48:47.900Z,61.10
2017-08-26T06:51:20.285Z,58.80
2017-08-26T06:53:52.525Z,57.80
2017-08-26T06:56:25.210Z,55.10
2017-08-26T06:58:57.493Z,54.60
2017-08-26T07:01:31.005Z,55.40
2017-08-26T07:04:03.224Z,55.60
2017-08-26T07:06:35.821Z,54.90
2017-08-26T07:09:08.096Z,52.80
2017-08-26T07:11:40.724Z,52.20
2017-08-26T07:14:12.961Z,53.60
2017-08-26T07:16:45.661Z,55.20
2017-08-26T07:19:18.073Z,58.20
2017-08-26T07:21:50.573Z,61.40
2017-08-26T07:24:23.008Z,61.60
2017-08-26T07:26:55.433Z,61.30
2017-08-26T07:29:27.700Z,61.30
2017-08-26T07:32:00.443Z,61.90
2017-08-26T07:34:32.751Z,62.30
2017-08-26T07:37:05.137Z,60.70
2017-08-26T07:39:37.509Z,58.50
2017-08-26T07:42:09.986Z,57.60
2017-08-26T07:44:42.228Z,57.50
2017-08-26T07:47:14.631Z,55.90
2017-08-26T07:49:47.029Z,55.20
2017-08-26T07:52:19.376Z,55.20
2017-08-26T07:54:51.691Z,55.30
2017-08-26T07:57:23.998Z,56.80
2017-08-26T07:59:56.227Z,57.50
2017-08-26T08:02:28.665Z,56.30
2017-08-26T08:05:01.024Z,56.80
2017-08-26T08:07:33.350Z,56.80
2017-08-26T08:10:05.643Z,57.60
2017-08-26T08:12:38.068Z,56.70
2017-08-26T08:15:10.403Z,57.80
2017-08-26T08:17:42.707Z,58.70
2017-08-26T08:20:14.981Z,58.90
2017-08-26T08:22:47.365Z,59.70
2017-08-26T08:25:19.643Z,60.40
2017-08-26T08:27:52.214Z,59.80
2017-08-26T08:30:25.312Z,60.10
2017-08-26T08:32:57.769Z,59.80
2017-08-26T08:35:30.087Z,59.50
2017-08-26T08:38:02.403Z,59.20
2017-08-26T08:40:34.766Z,60.60
2017-08-26T08:43:07.231Z,60.60
2017-08-26T08:45:39.491Z,61.20
2017-08-26T08:48:11.915Z,60.00
2017-08-26T08:50:44.424Z,60.20
2017-08-26T08:53:16.720Z,59.20
2017-08-26T08:55:48.914Z,58.70
2017-08-26T08:58:22.237Z,57.90
2017-08-26T09:00:54.589Z,58.40
2017-08-26T09:03:26.994Z,57.90
2017-08-26T09:05:59.304Z,58.90
2017-08-26T09:08:31.781Z,59.30
2017-08-26T09:11:04.465Z,58.40
2017-08-26T09:13:36.795Z,57.90
2017-08-26T09:16:08.892Z,57.70
2017-08-26T09:18:41.023Z,57.40
2017-08-26T09:21:13.324Z,56.20
2017-08-26T09:23:45.478Z,56.90
2017-08-26T09:26:17.810Z,56.10
2017-08-26T09:28:50.240Z,54.40
2017-08-26T09:31:22.549Z,51.90
2017-08-26T09:33:58.665Z,51.30
2017-08-26T09:36:31.284Z,52.70
2017-08-26T09:39:03.654Z,51.30
2017-08-26T09:41:35.897Z,52.10
2017-08-26T09:44:08.258Z,52.80
2017-08-26T09:46:40.750Z,53.40
2017-08-26T09:49:12.891Z,54.60
2017-08-26T09:51:45.399Z,53.90
2017-08-26T09:54:17.804Z,54.50
2017-08-26T09:56:50.153Z,55.30
2017-08-26T09:59:22.586Z,54.40
2017-08-26T10:01:55.347Z,53.90
2017-08-26T10:04:27.684Z,53.40
2017-08-26T10:06:59.978Z,53.60
2017-08-26T10:09:32.323Z,54.60
2017-08-26T10:12:04.630Z,53.50
2017-08-26T10:14:37.154Z,53.00
2017-08-26T10:17:09.557Z,53.50
2017-08-26T10:19:41.931Z,53.90
2017-08-26T10:22:14.123Z,54.70
2017-08-26T10:24:46.591Z,54.40
2017-08-26T10:27:18.826Z,53.30
2017-08-26T10:29:51.078Z,53.80
2017-08-26T10:32:23.437Z,53.50
2017-08-26T10:34:55.713Z,53.80
2017-08-26T10:37:28.071Z,53.90
2017-08-26T10:40:00.431Z,54.20
2017-08-26T10:42:32.795Z,55.70
2017-08-26T10:45:05.290Z,54.50
2017-08-26T10:47:37.445Z,53.40
2017-08-26T10:50:09.777Z,52.60
2017-08-26T10:52:42.223Z,53.50
2017-08-26T10:55:14.493Z,54.00
2017-08-26T10:57:46.962Z,53.80
2017-08-26T11:00:19.361Z,51.70
2017-08-26T11:02:51.681Z,49.50
2017-08-26T11:05:23.945Z,46.50
2017-08-26T11:07:56.406Z,48.50
2017-08-26T11:10:28.766Z,49.60
2017-08-26T11:13:00.971Z,50.90
2017-08-26T11:15:34.411Z,49.30
2017-08-26T11:18:06.727Z,47.20
2017-08-26T11:20:39.068Z,46.30
2017-08-26T11:23:11.772Z,46.70
2017-08-26T11:25:44.258Z,44.80
2017-08-26T11:28:16.675Z,43.80
2017-08-26T11:30:49.371Z,43.00
2017-08-26T11:33:21.730Z,44.10
2017-08-26T11:35:54.495Z,43.50
2017-08-26T11:38:27.072Z,43.00
2017-08-26T11:41:00.673Z,43.40
2017-08-26T11:43:32.988Z,44.60
2017-08-26T11:46:06.709Z,46.00
2017-08-26T11:48:39.064Z,47.90
2017-08-26T11:51:11.771Z,48.40
2017-08-26T11:53:43.926Z,49.50
2017-08-26T11:56:16.671Z,49.50
2017-08-26T11:58:49.265Z,48.80
2017-08-26T12:01:22.051Z,49.00
2017-08-26T12:03:54.192Z,48.40
2017-08-26T12:06:26.752Z,47.40
2017-08-26T12:08:52.968Z,46.30
2017-08-26T12:11:19.170Z,43.90
2017-08-26T12:13:46.580Z,41.90
2017-08-26T12:16:12.750Z,42.50
2017-08-26T12:18:38.927Z,45.90
2017-08-26T12:21:05.558Z,46.00
2017-08-26T12:23:31.801Z,59.30
2017-08-26T12:25:57.969Z,48.70
2017-08-26T12:28:24.596Z,50.00
2017-08-26T12:30:50.779Z,51.00
2017-08-26T12:33:18.186Z,50.00
2017-08-26T12:35:44.694Z,49.00
2017-08-26T12:38:10.849Z,49.30
2017-08-26T12:40:39.160Z,48.80
2017-08-26T12:43:05.696Z,49.70
2017-08-26T12:45:31.939Z,50.10
2017-08-26T12:47:58.184Z,49.70
2017-08-26T12:50:25.808Z,50.80
2017-08-26T12:52:52.089Z,49.80
2017-08-26T12:55:18.277Z,51.30
2017-08-26T12:57:46.724Z,50.70
2017-08-26T13:00:13.272Z,51.40
2017-08-26T13:02:39.510Z,51.00
2017-08-26T13:05:06.153Z,50.60
2017-08-26T13:07:32.329Z,51.40
2017-08-26T13:09:58.486Z,51.10
2017-08-26T13:12:25.072Z,51.00
2017-08-26T13:14:51.275Z,51.00
2017-08-26T13:17:17.620Z,50.60
2017-08-26T13:19:44.097Z,49.80
2017-08-26T13:22:10.434Z,48.20
2017-08-26T13:24:37.069Z,48.80
2017-08-26T13:27:03.679Z,50.30
2017-08-26T13:29:31.180Z,49.80
2017-08-26T13:31:57.425Z,48.90
2017-08-26T13:34:24.078Z,50.30
2017-08-26T13:36:50.381Z,50.60
2017-08-26T13:39:16.685Z,51.20
2017-08-26T13:41:43.225Z,52.80
2017-08-26T13:44:10.089Z,53.50
2017-08-26T13:46:36.337Z,52.70
2017-08-26T13:49:03.169Z,53.50
2017-08-26T13:51:29.465Z,54.90
2017-08-26T13:53:55.685Z,53.40
2017-08-26T13:56:23.246Z,52.10
2017-08-26T13:58:52.698Z,51.50
2017-08-26T14:01:19.429Z,52.40
2017-08-26T14:03:46.291Z,51.90
2017-08-26T14:06:12.517Z,51.80
2017-08-26T14:08:38.734Z,51.40
2017-08-26T14:11:05.093Z,51.20
2017-08-26T14:13:31.369Z,51.50
2017-08-26T14:15:59.010Z,52.60
2017-08-26T14:18:25.366Z,51.50
2017-08-26T14:20:51.623Z,51.60
2017-08-26T14:23:20.341Z,52.20
2017-08-26T14:25:46.541Z,53.30
2017-08-26T14:28:12.886Z,52.90
2017-08-26T14:30:39.096Z,52.70
2017-08-26T14:33:05.489Z,53.00
2017-08-26T14:35:31.822Z,53.30
2017-08-26T14:37:58.045Z,52.70
2017-08-26T14:40:24.547Z,52.50
2017-08-26T14:42:50.712Z,52.90
2017-08-26T14:45:16.877Z,52.30
2017-08-26T14:47:43.358Z,52.40
2017-08-26T14:50:09.604Z,52.70
2017-08-26T14:52:35.760Z,52.80
2017-08-26T14:55:02.247Z,53.00
2017-08-26T14:57:28.520Z,54.00
2017-08-26T14:59:55.039Z,54.00
2017-08-26T15:02:21.682Z,53.80
2017-08-26T15:04:47.981Z,53.90
2017-08-26T15:07:14.209Z,54.70
2017-08-26T15:09:41.021Z,54.20
2017-08-26T15:12:07.204Z,54.40
2017-08-26T15:14:34.151Z,53.70
2017-08-26T15:17:01.089Z,53.50
2017-08-26T15:19:27.475Z,54.40
2017-08-26T15:21:53.684Z,55.70
2017-08-26T15:24:21.460Z,56.60
2017-08-26T15:26:47.623Z,56.90
2017-08-26T15:29:13.854Z,57.80
2017-08-26T15:31:40.085Z,57.70
2017-08-26T15:34:07.534Z,57.50
2017-08-26T15:36:33.665Z,57.60
2017-08-26T15:39:00.135Z,57.80
2017-08-26T15:41:26.375Z,57.40
2017-08-26T15:43:52.656Z,58.90
2017-08-26T15:46:18.806Z,59.40
2017-08-26T15:48:45.038Z,60.30
2017-08-26T15:51:11.412Z,60.40
2017-08-26T15:53:37.623Z,60.90
2017-08-26T15:56:03.826Z,60.90
2017-08-26T15:58:30.053Z,61.00
2017-08-26T16:00:56.359Z,62.20
2017-08-26T16:03:22.608Z,62.90
2017-08-26T16:05:48.865Z,63.00
2017-08-26T16:08:15.239Z,62.80
2017-08-26T16:10:41.489Z,63.30
2017-08-26T16:13:07.636Z,63.50
2017-08-26T16:15:33.890Z,64.00
2017-08-26T16:18:00.472Z,64.60
2017-08-26T16:20:26.576Z,65.10
2017-08-26T16:22:52.800Z,64.80
2017-08-26T16:25:19.086Z,65.20
2017-08-26T16:27:45.404Z,64.60
2017-08-26T16:30:11.779Z,64.20
2017-08-26T16:32:38.053Z,64.40
2017-08-26T16:35:04.236Z,65.00
2017-08-26T16:37:30.454Z,65.30
2017-08-26T16:39:56.679Z,66.30
2017-08-26T16:42:23.096Z,66.10
2017-08-26T16:44:49.398Z,66.10
2017-08-26T16:47:15.699Z,67.00
2017-08-26T16:49:42.114Z,66.80
2017-08-26T16:52:08.533Z,67.40
2017-08-26T16:54:34.900Z,66.90
2017-08-26T16:57:01.365Z,67.10
2017-08-26T16:59:28.006Z,67.40
2017-08-26T17:01:54.613Z,67.70
2017-08-26T17:04:22.060Z,67.80
2017-08-26T17:06:48.873Z,68.10
2017-08-26T17:09:15.298Z,68.50
2017-08-26T17:11:41.466Z,68.80
2017-08-26T17:14:07.972Z,69.10
2017-08-26T17:16:34.465Z,69.40
2017-08-26T17:19:00.620Z,69.70
2017-08-26T17:21:27.299Z,69.90
2017-08-26T17:23:53.490Z,70.00
2017-08-26T17:26:19.714Z,70.10
2017-08-26T17:28:46.362Z,70.00
2017-08-26T17:31:12.570Z,70.60
2017-08-26T17:33:38.812Z,70.90
2017-08-26T17:36:05.224Z,71.60
2017-08-26T17:38:31.478Z,71.50
2017-08-26T17:40:57.747Z,71.90
2017-08-26T17:43:24.225Z,72.30
2017-08-26T17:45:50.328Z,72.60
2017-08-26T17:48:16.590Z,72.70
2017-08-26T17:50:43.246Z,73.20
2017-08-26T17:53:16.445Z,73.90
2017-08-26T17:55:42.659Z,74.20
2017-08-26T17:58:08.927Z,74.10
2017-08-26T18:00:35.218Z,75.20
2017-08-26T18:03:01.578Z,75.40
2017-08-26T18:05:27.786Z,75.40
2017-08-26T18:07:53.968Z,76.30
2017-08-26T18:10:20.153Z,77.00
2017-08-26T18:12:46.370Z,76.90
2017-08-26T18:15:12.484Z,77.00
2017-08-26T18:17:38.898Z,77.20
2017-08-26T18:20:05.081Z,77.50
2017-08-26T18:22:31.517Z,77.10
2017-08-26T18:24:57.903Z,77.50
2017-08-26T18:27:24.645Z,78.20
2017-08-26T18:29:51.022Z,78.00
2017-08-26T18:32:17.264Z,78.50
2017-08-26T18:34:43.560Z,78.60
2017-08-26T18:37:09.791Z,78.60
2017-08-26T18:39:36.065Z,78.60
2017-08-26T18:42:02.232Z,78.70
2017-08-26T18:44:28.346Z,78.80
2017-08-26T18:46:54.634Z,78.90
2017-08-26T18:49:21.079Z,78.60
2017-08-26T18:51:47.313Z,78.50
2017-08-26T18:54:13.570Z,78.50
2017-08-26T18:56:39.741Z,78.00
2017-08-26T18:59:06.100Z,78.60
2017-08-26T19:01:32.521Z,79.00
2017-08-26T19:03:58.808Z,79.30
2017-08-26T19:06:24.967Z,79.50
2017-08-26T19:08:51.287Z,79.50
2017-08-26T19:11:17.500Z,79.20
2017-08-26T19:13:43.823Z,79.60
2017-08-26T19:16:10.178Z,79.20
2017-08-26T19:18:36.648Z,80.00
2017-08-26T19:21:02.931Z,80.20
2017-08-26T19:23:29.230Z,80.30
2017-08-26T19:25:56.396Z,82.00
2017-08-26T19:28:22.619Z,81.30
2017-08-26T19:30:48.824Z,80.90
2017-08-26T19:33:15.067Z,80.90
2017-08-26T19:35:41.310Z,80.70
2017-08-26T19:38:07.938Z,80.80
2017-08-26T19:40:34.219Z,80.80
2017-08-26T19:43:00.587Z,80.80
2017-08-26T19:45:27.043Z,81.00
2017-08-26T19:47:53.412Z,80.90
2017-08-26T19:50:19.740Z,81.40
2017-08-26T19:52:46.127Z,81.40
2017-08-26T19:55:12.478Z,81.80
2017-08-26T19:57:38.777Z,82.10
2017-08-26T20:00:04.987Z,82.60
2017-08-26T20:02:32.276Z,82.70
2017-08-26T20:04:59.943Z,82.90
2017-08-26T20:07:26.268Z,82.90
2017-08-26T20:09:52.688Z,82.60
2017-08-26T20:12:19.506Z,82.80
2017-08-26T20:14:52.030Z,82.70
2017-08-26T20:17:19.395Z,82.80
2017-08-26T20:19:45.930Z,83.20
2017-08-26T20:22:13.906Z,83.50
2017-08-26T20:24:40.343Z,83.60
2017-08-26T20:27:06.869Z,83.60
2017-08-26T20:29:33.887Z,83.90
2017-08-26T20:32:00.979Z,84.30
2017-08-26T20:34:27.386Z,84.70
2017-08-26T20:36:54.451Z,85.00
2017-08-26T20:39:20.878Z,84.90
2017-08-26T20:41:47.098Z,84.40
2017-08-26T20:44:13.470Z,84.70
2017-08-26T20:46:40.397Z,84.90
2017-08-26T20:49:06.853Z,85.00
2017-08-26T20:51:33.307Z,85.20
2017-08-26T20:53:59.942Z,85.20
2017-08-26T20:56:26.494Z,85.10
2017-08-26T20:58:53.047Z,84.90
2017-08-26T21:01:19.986Z,85.20
2017-08-26T21:03:46.784Z,85.20
2017-08-26T21:06:13.636Z,85.50
2017-08-26T21:08:42.227Z,85.40
2017-08-26T21:11:08.908Z,85.20
2017-08-26T21:13:35.475Z,85.10
2017-08-26T21:16:01.881Z,85.60
2017-08-26T21:18:28.848Z,86.60
2017-08-26T21:20:55.498Z,86.00
2017-08-26T21:23:21.986Z,86.40
2017-08-26T21:25:48.867Z,86.40
2017-08-26T21:28:16.328Z,86.20
2017-08-26T21:30:42.772Z,86.20
2017-08-26T21:33:10.226Z,86.60
2017-08-26T21:35:36.849Z,86.50
2017-08-26T21:38:04.573Z,86.70
2017-08-26T21:40:31.476Z,86.50
2017-08-26T21:42:57.942Z,86.60
2017-08-26T21:45:25.163Z,86.50
2017-08-26T21:47:52.051Z,87.00
2017-08-26T21:50:18.850Z,86.70
2017-08-26T21:52:46.585Z,87.00
2017-08-26T21:55:13.220Z,87.10
2017-08-26T21:57:46.827Z,87.50
2017-08-26T22:00:13.820Z,87.80
2017-08-26T22:02:41.797Z,88.10
2017-08-26T22:05:12.622Z,88.20
2017-08-26T22:07:38.975Z,88.90
2017-08-26T22:10:05.398Z,90.00
2017-08-26T22:12:36.369Z,89.40
2017-08-26T22:15:02.644Z,89.80
2017-08-26T22:17:29.105Z,90.10
2017-08-26T22:19:56.455Z,90.30
2017-08-26T22:22:22.790Z,90.50
2017-08-26T22:24:49.399Z,90.60
2017-08-26T22:27:16.057Z,90.70
2017-08-26T22:29:42.335Z,90.50
2017-08-26T22:32:09.280Z,90.60
2017-08-26T22:34:36.873Z,90.30
2017-08-26T22:37:03.222Z,89.90
2017-08-26T22:39:29.631Z,89.30
2017-08-26T22:41:55.866Z,89.40
2017-08-26T22:44:22.114Z,89.40
2017-08-26T22:46:48.526Z,90.20
2017-08-26T22:49:15.100Z,90.70
2017-08-26T22:51:41.516Z,90.80
2017-08-26T22:54:08.945Z,91.10
2017-08-26T22:56:35.607Z,91.70
2017-08-26T22:59:02.633Z,92.50
2017-08-26T23:01:29.025Z,93.30
2017-08-26T23:03:55.634Z,93.70
2017-08-26T23:06:21.895Z,94.30
2017-08-26T23:08:48.108Z,94.70
2017-08-26T23:11:14.701Z,94.40
2017-08-26T23:13:42.210Z,94.10
2017-08-26T23:16:08.889Z,94.70
2017-08-26T23:18:35.445Z,94.50
2017-08-26T23:21:02.084Z,94.70
2017-08-26T23:23:28.389Z,94.40
2017-08-26T23:25:54.932Z,94.80
2017-08-26T23:28:21.587Z,94.20
2017-08-26T23:30:48.483Z,93.70
2017-08-26T23:33:15.151Z,93.40
2017-08-26T23:35:41.533Z,93.90
2017-08-26T23:38:07.794Z,94.70
2017-08-26T23:40:34.474Z,94.70
2017-08-26T23:43:00.651Z,94.70
2017-08-26T23:45:26.931Z,94.60
2017-08-26T23:47:53.450Z,94.80
2017-08-26T23:50:19.645Z,95.20
2017-08-26T23:52:47.654Z,95.80
2017-08-26T23:55:14.192Z,96.20
2017-08-26T23:57:40.436Z,96.90
